KSNL/SNL METAR and TAF weather

Enter ICAO airport designator
Station Type Date Time Source
KSNL METAR 2020/01/29 12:35 UTC NOAA

KSNL 291235Z AUTO 36008KT 5SM BR OVC004 00/00 A3008 RMK AO2 T00010000


Station Type Date Time Source
KSNL Decoded METAR 2020/01/29 12:35 UTC NOAA

Shawnee, Shawnee Municipal Airport, OK, United States (KSNL) 35-21-26N 096-56-34W
Jan 29, 2020 - 07:35 AM EST / 2020.01.29 1235 UTC
Wind: from the N (360 degrees) at 9 MPH (8 KT):0
Visibility: 5 mile(s):0
Sky conditions: overcast
Weather: mist
Temperature: 32.2 F (0.1 C)
Windchill: 24 F (-4 C):1
Dew Point: 32.0 F (0.0 C)
Relative Humidity: 99%
Pressure (altimeter): 30.08 in. Hg (1018 hPa)
ob: KSNL 291235Z AUTO 36008KT 5SM BR OVC004 00/00 A3008 RMK AO2 T00010000
cycle: 12

Station Type Date Time Source
KSNL TAF UTC NOAA

Error!

Example: see airport list